Time;durP1;ratioP1;P1;durP2;ratioP2;P2;SDS_P1;SDS_P2;PMS_P1;PMS_P2;Temp;Humidity;BMP_temperature;BMP_pressure;BME280_temperature;BME280_humidity;BME280_pressure;Samples;Min_cycle;Max_cycle;Signal;HPM_P1;HPM_P2
2021/05/07 00:01:06;;;;;;;0.95;0.80;;;;;;;18.44;29.81;100730.97;4174318;28;20045;-53
2021/05/07 00:03:07;;;;;;;1.40;0.73;;;;;;;18.49;30.00;100733.75;4180387;28;20097;-52
2021/05/07 00:05:08;;;;;;;1.35;0.70;;;;;;;18.44;29.82;100730.97;4173456;28;20822;-50
2021/05/07 00:07:08;;;;;;;3.33;0.75;;;;;;;18.37;29.90;100736.00;4173879;28;20440;-55
2021/05/07 00:09:08;;;;;;;1.90;0.75;;;;;;;18.33;30.03;100735.69;4176114;28;20032;-53
2021/05/07 00:11:15;;;;;;;2.70;0.85;;;;;;;18.35;29.78;100735.41;4174795;28;20033;-52
2021/05/07 00:13:15;;;;;;;2.13;0.77;;;;;;;18.35;29.96;100727.09;4174831;28;20110;-52
2021/05/07 00:15:16;;;;;;;2.25;1.00;;;;;;;18.27;30.04;100734.00;4178459;28;20028;-53
2021/05/07 00:17:16;;;;;;;1.30;0.55;;;;;;;18.23;30.04;100734.84;4177547;28;20025;-54
2021/05/07 00:19:16;;;;;;;2.90;0.80;;;;;;;18.26;29.99;100737.06;4176307;28;20028;-51
2021/05/07 00:21:17;;;;;;;1.33;0.65;;;;;;;18.17;30.08;100737.63;4177559;28;20037;-53
2021/05/07 00:23:17;;;;;;;4.32;1.25;;;;;;;18.26;30.07;100739.81;4177916;28;20455;-55
2021/05/07 00:25:18;;;;;;;1.80;1.05;;;;;;;18.14;29.96;100737.34;4176543;28;20124;-54
2021/05/07 00:27:18;;;;;;;1.20;1.10;;;;;;;18.16;30.05;100743.44;4171263;28;20034;-52
2021/05/07 00:29:19;;;;;;;1.80;1.17;;;;;;;18.06;30.01;100744.28;4174325;28;20037;-52
2021/05/07 00:31:19;;;;;;;2.80;1.38;;;;;;;18.02;30.25;100740.38;4180298;28;20406;-51
2021/05/07 00:33:20;;;;;;;1.83;1.20;;;;;;;18.11;29.93;100738.72;4183399;28;20050;-51
2021/05/07 00:35:20;;;;;;;2.17;1.40;;;;;;;18.05;29.92;100741.78;4176619;28;20083;-54
2021/05/07 00:37:21;;;;;;;1.70;1.38;;;;;;;18.07;29.97;100754.22;4185846;28;20826;-51
2021/05/07 00:39:21;;;;;;;1.60;1.20;;;;;;;18.00;30.09;100750.91;4174373;28;20705;-52
2021/05/07 00:41:21;;;;;;;1.58;1.17;;;;;;;17.94;29.94;100749.25;4177595;28;20048;-50
2021/05/07 00:43:22;;;;;;;1.63;1.08;;;;;;;17.91;30.23;100749.78;4175247;28;20032;-54
2021/05/07 00:45:23;;;;;;;1.13;1.00;;;;;;;17.93;30.17;100753.09;4171461;28;20510;-51
2021/05/07 00:47:24;;;;;;;2.45;1.15;;;;;;;17.92;29.95;100743.13;4183832;28;20036;-52
2021/05/07 00:49:25;;;;;;;2.15;1.70;;;;;;;17.90;30.13;100748.94;4182891;28;20450;-54
2021/05/07 00:51:25;;;;;;;1.10;1.00;;;;;;;17.89;30.09;100752.00;4176299;28;20052;-55
2021/05/07 00:53:28;;;;;;;1.83;0.98;;;;;;;17.90;30.03;100745.34;4177294;28;20411;-53
2021/05/07 00:55:30;;;;;;;1.02;0.88;;;;;;;17.88;29.88;100747.56;4175098;28;20459;-53
2021/05/07 00:57:31;;;;;;;2.75;1.23;;;;;;;17.87;30.02;100748.66;4181878;28;20493;-52
2021/05/07 00:59:32;;;;;;;1.27;1.17;;;;;;;17.85;29.95;100748.94;4175828;28;20036;-53
2021/05/07 01:01:33;;;;;;;2.30;1.15;;;;;;;17.80;29.91;100743.41;4174396;28;20040;-55
2021/05/07 01:03:33;;;;;;;4.30;1.50;;;;;;;17.87;29.71;100740.38;4184670;28;20783;-54
2021/05/07 01:05:34;;;;;;;2.15;1.42;;;;;;;17.84;29.88;100743.69;4176515;28;20514;-55
2021/05/07 01:07:35;;;;;;;3.75;1.35;;;;;;;17.70;30.00;100743.38;4177968;28;20366;-55
2021/05/07 01:09:36;;;;;;;3.47;1.42;;;;;;;17.69;30.09;100734.25;4190405;28;20084;-54
2021/05/07 01:11:38;;;;;;;0.80;0.80;;;;;;;17.75;29.88;100743.38;4172899;28;20029;-53
2021/05/07 01:13:39;;;;;;;2.40;1.48;;;;;;;17.62;29.91;100722.59;4176805;28;20034;-56
2021/05/07 01:15:39;;;;;;;3.05;1.38;;;;;;;17.72;30.20;100739.25;4176158;28;20040;-55
2021/05/07 01:17:43;;;;;;;1.75;1.45;;;;;;;17.58;30.31;100715.94;4176505;28;20032;-54
2021/05/07 01:19:43;;;;;;;3.20;1.58;;;;;;;17.74;30.20;100737.03;4190118;28;20048;-56
2021/05/07 01:21:45;;;;;;;4.32;2.25;;;;;;;17.72;30.09;100744.78;4177180;28;20655;-54
2021/05/07 01:23:45;;;;;;;3.03;1.35;;;;;;;17.61;30.16;100734.78;4177243;28;20044;-51
2021/05/07 01:25:45;;;;;;;2.58;1.50;;;;;;;17.69;30.04;100738.94;4181258;28;20033;-55
2021/05/07 01:27:48;;;;;;;2.08;1.00;;;;;;;17.62;29.98;100741.97;4175129;28;20043;-51
2021/05/07 01:29:48;;;;;;;2.75;1.10;;;;;;;17.60;30.12;100739.47;4178259;28;20083;-56
2021/05/07 01:31:54;;;;;;;2.25;1.02;;;;;;;17.53;30.14;100736.13;4174327;28;20029;-53
2021/05/07 01:33:54;;;;;;;2.05;1.02;;;;;;;17.63;30.20;100750.00;4177971;28;20155;-53
2021/05/07 01:35:54;;;;;;;3.08;1.00;;;;;;;17.59;30.09;100745.28;4181235;28;20514;-53
2021/05/07 01:37:58;;;;;;;2.25;0.90;;;;;;;17.56;30.38;100754.97;4177626;28;20040;-55
2021/05/07 01:39:58;;;;;;;2.53;1.67;;;;;;;17.54;30.37;100761.88;4171932;28;20647;-55
2021/05/07 01:41:58;;;;;;;2.58;1.35;;;;;;;17.54;30.42;100759.13;4172080;28;20040;-54
2021/05/07 01:43:59;;;;;;;1.08;0.90;;;;;;;17.51;30.42;100754.13;4177582;28;20040;-56
2021/05/07 01:45:59;;;;;;;2.72;1.20;;;;;;;17.50;30.25;100760.75;4177126;28;20433;-54
2021/05/07 01:48:00;;;;;;;1.20;1.10;;;;;;;17.53;30.21;100751.91;4171642;28;20431;-50
2021/05/07 01:50:06;;;;;;;1.52;1.05;;;;;;;17.50;30.31;100756.03;4181767;28;20029;-52
2021/05/07 01:52:06;;;;;;;1.65;1.05;;;;;;;17.45;30.36;100747.72;4177566;28;20044;-55
2021/05/07 01:54:07;;;;;;;1.45;1.30;;;;;;;17.46;30.15;100755.75;4176050;28;20040;-51
2021/05/07 01:56:07;;;;;;;1.98;1.38;;;;;;;17.61;29.87;100756.91;4174048;28;20029;-52
2021/05/07 01:58:13;;;;;;;1.98;1.20;;;;;;;17.32;29.52;100765.66;4178765;28;20040;-53
2021/05/07 02:00:17;;;;;;;2.55;1.23;;;;;;;17.34;29.56;100748.78;4176586;28;20119;-54
2021/05/07 02:02:18;;;;;;;1.50;1.40;;;;;;;17.22;29.60;100749.81;4175199;28;20037;-54
2021/05/07 02:04:18;;;;;;;1.95;1.30;;;;;;;17.24;29.24;100764.25;4170830;28;20115;-52
2021/05/07 02:06:19;;;;;;;1.85;1.05;;;;;;;17.24;29.35;100755.94;4181712;28;20028;-55
2021/05/07 02:08:19;;;;;;;1.90;0.95;;;;;;;17.28;29.24;100754.28;4187216;28;20025;-54
2021/05/07 02:10:26;;;;;;;2.10;1.42;;;;;;;17.10;29.25;100758.38;4172119;28;20479;-50
2021/05/07 02:12:27;;;;;;;1.63;1.50;;;;;;;17.05;29.52;100755.59;4170986;28;20391;-51
2021/05/07 02:14:27;;;;;;;4.20;1.45;;;;;;;17.00;29.50;100758.31;4174517;28;20029;-53
2021/05/07 02:16:28;;;;;;;1.67;1.45;;;;;;;17.18;29.54;100758.94;4176890;28;20131;-53
2021/05/07 02:18:28;;;;;;;1.25;0.80;;;;;;;17.19;29.55;100755.06;4175524;28;20045;-48
2021/05/07 02:20:29;;;;;;;1.70;1.33;;;;;;;17.14;29.33;100775.25;4171598;28;20892;-54
2021/05/07 02:22:30;;;;;;;3.42;1.40;;;;;;;17.17;29.40;100769.19;4184656;28;20043;-50
2021/05/07 02:24:31;;;;;;;3.08;1.23;;;;;;;16.98;29.55;100781.81;4181888;28;20037;-49
2021/05/07 02:26:31;;;;;;;1.55;1.13;;;;;;;16.96;29.52;100778.47;4175720;28;20041;-54
2021/05/07 02:28:31;;;;;;;2.72;1.00;;;;;;;16.92;29.74;100783.72;4177137;28;20106;-54
2021/05/07 02:30:32;;;;;;;2.33;0.98;;;;;;;16.91;29.55;100796.72;4171426;28;20099;-55
2021/05/07 02:32:33;;;;;;;1.65;1.50;;;;;;;16.92;29.64;100800.28;4178145;28;20041;-52
2021/05/07 02:34:33;;;;;;;3.00;1.23;;;;;;;16.95;29.70;100796.19;4181733;28;20064;-56
2021/05/07 02:36:34;;;;;;;1.65;1.05;;;;;;;17.02;29.67;100805.03;4176656;28;20136;-54
2021/05/07 02:38:37;;;;;;;1.60;1.23;;;;;;;17.07;29.61;100811.44;4180878;28;20036;-52
2021/05/07 02:40:37;;;;;;;2.00;1.90;;;;;;;16.99;29.76;100814.72;4174632;28;20119;-54
2021/05/07 02:42:38;;;;;;;3.45;1.55;;;;;;;16.87;29.87;100830.69;4173538;28;20032;-56
2021/05/07 02:44:38;;;;;;;1.63;1.23;;;;;;;16.89;30.15;100840.34;4172444;28;20025;-55
2021/05/07 02:46:39;;;;;;;3.50;0.88;;;;;;;16.63;30.55;100808.91;4173552;28;20029;-56
2021/05/07 02:48:39;;;;;;;2.55;1.00;;;;;;;16.84;31.08;100847.81;4175580;28;20049;-53
2021/05/07 02:50:39;;;;;;;1.65;1.00;;;;;;;16.85;30.93;100833.72;4173413;28;20090;-54
2021/05/07 02:52:40;;;;;;;2.38;0.95;;;;;;;16.86;30.60;100832.59;4175344;28;20040;-53
2021/05/07 02:54:41;;;;;;;2.10;1.17;;;;;;;16.86;30.34;100840.06;4171768;28;20553;-55
2021/05/07 02:56:41;;;;;;;2.35;1.23;;;;;;;16.81;30.49;100837.28;4175065;28;20029;-55
2021/05/07 02:58:42;;;;;;;1.33;1.10;;;;;;;16.82;30.44;100834.25;4175555;28;20033;-54
2021/05/07 03:00:42;;;;;;;1.67;1.17;;;;;;;16.85;30.86;100838.38;4175509;28;20037;-54
2021/05/07 03:02:42;;;;;;;1.17;1.08;;;;;;;16.74;31.52;100835.56;4173937;28;20041;-51
2021/05/07 03:04:43;;;;;;;1.38;1.27;;;;;;;16.80;30.61;100841.13;4185250;28;20093;-52
2021/05/07 03:06:43;;;;;;;3.38;1.30;;;;;;;16.84;30.49;100842.28;4175725;28;20033;-54
2021/05/07 03:08:44;;;;;;;1.20;0.93;;;;;;;16.75;30.62;100833.63;4173281;28;20407;-54
2021/05/07 03:10:44;;;;;;;1.70;1.60;;;;;;;16.78;30.86;100843.34;4174915;28;20047;-52
2021/05/07 03:12:44;;;;;;;1.02;0.98;;;;;;;16.85;30.48;100832.84;4174187;28;20033;-53
2021/05/07 03:14:45;;;;;;;2.53;0.70;;;;;;;16.68;30.60;100839.41;4178603;28;20040;-53
2021/05/07 03:16:45;;;;;;;1.13;0.88;;;;;;;16.67;31.46;100851.53;4173722;28;20037;-53
2021/05/07 03:18:46;;;;;;;1.88;1.05;;;;;;;16.74;31.21;100846.63;4177931;28;20542;-54
2021/05/07 03:20:47;;;;;;;1.88;0.90;;;;;;;16.77;31.06;100850.78;4170614;28;20040;-54
2021/05/07 03:22:47;;;;;;;1.25;1.15;;;;;;;16.46;31.39;100816.50;4174133;28;20032;-56
2021/05/07 03:24:48;;;;;;;1.92;1.42;;;;;;;16.81;30.78;100862.97;4176553;28;20098;-56
2021/05/07 03:26:48;;;;;;;0.90;0.80;;;;;;;16.61;30.79;100838.75;4176183;28;20033;-55
2021/05/07 03:28:49;;;;;;;1.08;0.75;;;;;;;16.73;31.27;100867.06;4171609;28;20029;-54
2021/05/07 03:30:50;;;;;;;1.15;0.90;;;;;;;16.72;31.06;100867.31;4178676;28;20028;-52
2021/05/07 03:32:50;;;;;;;0.63;0.63;;;;;;;16.84;31.20;100869.91;4179272;28;20337;-52
2021/05/07 03:34:51;;;;;;;0.80;0.70;;;;;;;16.81;31.17;100874.03;4182999;28;20555;-54
2021/05/07 03:36:51;;;;;;;2.00;1.20;;;;;;;16.78;31.49;100868.22;4181543;28;20423;-55
2021/05/07 03:38:51;;;;;;;1.10;1.00;;;;;;;16.75;31.07;100873.16;4176911;28;20159;-53
2021/05/07 03:40:52;;;;;;;1.63;0.85;;;;;;;16.72;31.75;100879.22;4176370;28;20625;-53
2021/05/07 03:42:53;;;;;;;1.30;1.20;;;;;;;16.75;31.64;100895.25;4174221;28;20070;-55
2021/05/07 03:44:53;;;;;;;2.38;0.90;;;;;;;16.74;31.69;100890.84;4186429;28;20037;-54
2021/05/07 03:46:53;;;;;;;1.35;1.20;;;;;;;16.74;31.70;100892.75;4185427;28;20036;-55
2021/05/07 03:48:54;;;;;;;2.55;0.55;;;;;;;16.81;31.57;100898.91;4175796;28;20032;-51
2021/05/07 03:50:55;;;;;;;1.38;0.73;;;;;;;16.83;31.47;100898.66;4192542;28;20055;-54
2021/05/07 03:52:55;;;;;;;1.42;1.30;;;;;;;16.75;30.84;100900.78;4179646;28;20025;-55
2021/05/07 03:54:56;;;;;;;1.52;0.80;;;;;;;16.81;31.31;100898.91;4177902;28;20472;-54
2021/05/07 03:56:56;;;;;;;0.75;0.63;;;;;;;16.80;31.59;100901.94;4190514;28;20037;-55
2021/05/07 03:58:57;;;;;;;1.95;1.20;;;;;;;16.82;31.44;100899.72;4177074;28;20037;-53
2021/05/07 04:00:57;;;;;;;1.83;1.00;;;;;;;16.81;31.34;100898.09;4179505;28;20032;-51
2021/05/07 04:02:57;;;;;;;1.70;1.60;;;;;;;16.88;31.39;100904.22;4178650;28;20137;-54
2021/05/07 04:04:58;;;;;;;1.40;1.30;;;;;;;16.88;31.44;100904.22;4176643;28;20038;-54
2021/05/07 04:06:58;;;;;;;1.27;1.17;;;;;;;16.95;31.15;100915.06;4192079;28;20033;-56
2021/05/07 04:09:12;;;;;;;2.03;1.17;;;;;;;16.89;31.38;100912.25;4176027;28;20434;-56
2021/05/07 04:11:28;;;;;;;1.15;1.13;;;;;;;16.98;31.05;100920.88;4178901;28;20044;-53
2021/05/07 04:13:37;;;;;;;1.65;1.00;;;;;;;16.92;31.43;100924.72;4178441;28;20037;-56
2021/05/07 04:15:38;;;;;;;1.08;0.80;;;;;;;16.96;31.24;100925.88;4180229;28;20028;-53
2021/05/07 04:17:39;;;;;;;1.35;0.80;;;;;;;16.84;31.19;100914.16;4185426;28;20028;-56
2021/05/07 04:19:39;;;;;;;1.23;1.13;;;;;;;16.99;31.22;100932.78;4179489;28;20032;-56
2021/05/07 04:21:40;;;;;;;1.40;1.30;;;;;;;16.94;31.19;100930.81;4178320;28;20406;-53
2021/05/07 04:23:40;;;;;;;0.93;0.93;;;;;;;16.92;31.51;100933.84;4182387;28;20029;-52
2021/05/07 04:25:41;;;;;;;2.90;0.80;;;;;;;16.99;31.19;100939.16;4177586;28;20059;-54
2021/05/07 04:27:41;;;;;;;1.38;0.85;;;;;;;16.78;31.38;100904.97;4178970;28;20033;-54
2021/05/07 04:29:42;;;;;;;2.03;0.98;;;;;;;17.09;31.10;100938.41;4183039;28;20036;-54
2021/05/07 04:31:43;;;;;;;2.42;1.77;;;;;;;17.05;30.54;100934.47;4180299;28;20072;-53
2021/05/07 04:33:43;;;;;;;2.80;1.58;;;;;;;16.96;31.29;100947.97;4178371;28;20459;-55
2021/05/07 04:35:43;;;;;;;1.38;0.90;;;;;;;17.02;31.25;100948.84;4171508;28;20099;-54
2021/05/07 04:37:44;;;;;;;1.42;1.10;;;;;;;17.05;31.27;100949.16;4178234;28;20091;-54
2021/05/07 04:39:44;;;;;;;2.00;1.20;;;;;;;17.00;31.46;100953.81;4182269;28;20044;-54
2021/05/07 04:41:45;;;;;;;2.08;1.63;;;;;;;17.06;30.81;100950.81;4174299;28;20075;-52
2021/05/07 04:43:45;;;;;;;1.20;1.08;;;;;;;16.98;31.22;100947.72;4181180;28;20028;-54
2021/05/07 04:45:46;;;;;;;4.75;1.48;;;;;;;16.94;31.56;100955.69;4176276;28;20522;-54
2021/05/07 04:47:46;;;;;;;2.35;2.03;;;;;;;17.01;31.10;100953.53;4175669;28;20069;-54
2021/05/07 04:49:46;;;;;;;1.63;1.30;;;;;;;17.02;31.43;100960.75;4179798;28;20040;-56
2021/05/07 04:51:47;;;;;;;1.20;1.10;;;;;;;17.08;31.25;100962.44;4178025;28;20040;-53
2021/05/07 04:53:47;;;;;;;1.35;1.25;;;;;;;17.14;31.21;100956.97;4179038;28;20077;-54
2021/05/07 04:55:48;;;;;;;1.92;0.98;;;;;;;17.22;31.21;100965.59;4174764;28;20025;-56
2021/05/07 04:57:50;;;;;;;3.20;1.05;;;;;;;17.25;31.10;100972.53;4172458;28;20033;-55
2021/05/07 04:59:50;;;;;;;2.33;2.13;;;;;;;17.24;31.07;100962.56;4181717;28;20198;-55
2021/05/07 05:01:50;;;;;;;3.08;1.40;;;;;;;17.28;31.22;100974.78;4180651;28;20032;-55
2021/05/07 05:03:51;;;;;;;1.40;1.30;;;;;;;17.29;30.96;100974.50;4176230;28;20032;-56
2021/05/07 05:05:51;;;;;;;0.88;0.82;;;;;;;17.27;31.10;100978.63;4181124;28;20037;-54
2021/05/07 05:07:56;;;;;;;1.63;1.27;;;;;;;17.25;31.24;100972.53;4178430;28;20033;-57
2021/05/07 05:09:56;;;;;;;1.92;1.20;;;;;;;17.27;31.30;100987.78;4177173;28;20056;-56
2021/05/07 05:11:56;;;;;;;1.60;1.50;;;;;;;17.27;31.53;100973.09;4180408;28;20034;-54
2021/05/07 05:13:57;;;;;;;1.35;0.80;;;;;;;17.36;31.16;100992.81;4175049;28;20034;-56
2021/05/07 05:15:57;;;;;;;0.88;0.88;;;;;;;17.36;31.20;100996.41;4178473;28;20381;-55
2021/05/07 05:17:58;;;;;;;1.00;0.80;;;;;;;17.40;30.99;101003.09;4175809;28;20036;-56
2021/05/07 05:19:58;;;;;;;1.17;0.68;;;;;;;17.40;31.06;100994.78;4175462;28;20026;-55
2021/05/07 05:21:58;;;;;;;2.17;1.63;;;;;;;17.45;30.95;101003.09;4178551;28;20040;-57
2021/05/07 05:24:00;;;;;;;1.45;1.35;;;;;;;17.43;30.99;101002.56;4178326;28;20033;-55
2021/05/07 05:26:01;;;;;;;1.17;1.00;;;;;;;17.46;30.84;101003.97;4175775;28;20040;-55
2021/05/07 05:28:01;;;;;;;2.08;1.10;;;;;;;17.54;30.76;101017.31;4190531;28;20495;-57
2021/05/07 05:30:05;;;;;;;1.58;0.95;;;;;;;17.55;30.80;101012.63;4176168;28;20032;-56
2021/05/07 05:32:05;;;;;;;1.17;1.08;;;;;;;17.58;30.77;101014.84;4183860;28;20044;-59
2021/05/07 05:34:06;;;;;;;1.35;0.82;;;;;;;17.58;30.92;101023.16;4169860;28;20025;-57
2021/05/07 05:36:06;;;;;;;1.10;0.80;;;;;;;17.57;30.73;101022.34;4173483;28;20478;-58
2021/05/07 05:38:07;;;;;;;0.93;0.60;;;;;;;17.61;31.05;101029.00;4179417;28;20036;-56
2021/05/07 05:40:08;;;;;;;1.40;1.02;;;;;;;17.62;30.84;101032.59;4174444;28;20044;-55
2021/05/07 05:42:08;;;;;;;1.02;0.90;;;;;;;17.60;30.79;101032.03;4172247;28;20053;-56
2021/05/07 05:44:10;;;;;;;3.67;1.23;;;;;;;17.63;30.98;101037.06;4177652;28;20028;-56
2021/05/07 05:46:11;;;;;;;1.35;0.90;;;;;;;17.69;30.75;101036.00;4175964;28;20044;-55
2021/05/07 05:48:14;;;;;;;1.15;0.95;;;;;;;17.69;30.76;101038.75;4181495;28;20094;-55
2021/05/07 05:50:14;;;;;;;1.63;1.25;;;;;;;17.51;30.81;101019.81;4175454;28;20025;-56
2021/05/07 05:52:15;;;;;;;0.82;0.82;;;;;;;17.74;30.66;101049.84;4176507;28;20032;-55
2021/05/07 05:54:15;;;;;;;1.52;1.20;;;;;;;17.77;30.70;101054.84;4174004;28;20044;-56
2021/05/07 05:56:15;;;;;;;1.38;1.25;;;;;;;17.78;30.88;101051.00;4175769;28;20570;-55
2021/05/07 05:58:16;;;;;;;1.02;0.90;;;;;;;17.78;30.66;101062.06;4183593;28;20032;-54
2021/05/07 06:00:17;;;;;;;1.08;0.98;;;;;;;17.73;30.81;101053.72;4177236;28;20037;-55
2021/05/07 06:02:19;;;;;;;1.45;1.35;;;;;;;17.90;30.49;101069.34;4179692;28;20056;-56
2021/05/07 06:04:19;;;;;;;2.28;2.10;;;;;;;17.92;30.47;101073.53;4173503;28;20055;-53
2021/05/07 06:06:19;;;;;;;3.20;1.52;;;;;;;17.94;30.57;101076.03;4181289;28;20025;-56
2021/05/07 06:08:22;;;;;;;1.67;0.65;;;;;;;17.90;30.55;101074.88;4178769;28;20033;-52
2021/05/07 06:10:22;;;;;;;1.25;1.05;;;;;;;17.80;30.40;101054.31;4171255;28;20041;-54
2021/05/07 06:12:23;;;;;;;1.25;0.80;;;;;;;17.95;30.53;101083.22;4166276;28;20053;-54
2021/05/07 06:14:23;;;;;;;0.90;0.85;;;;;;;18.00;30.45;101083.25;4174231;28;20036;-56
2021/05/07 06:16:24;;;;;;;1.73;0.88;;;;;;;18.06;30.21;101092.41;4157781;28;20508;-55
2021/05/07 06:18:24;;;;;;;1.70;1.10;;;;;;;18.09;30.53;101091.88;4175470;28;20021;-56
2021/05/07 06:20:25;;;;;;;1.20;1.08;;;;;;;18.17;30.04;101083.09;4170742;28;20032;-56
2021/05/07 06:22:25;;;;;;;0.77;0.77;;;;;;;18.13;30.36;101085.53;4176717;28;20032;-55
2021/05/07 06:24:26;;;;;;;2.22;0.98;;;;;;;17.94;30.24;101048.31;4179582;28;20494;-51
2021/05/07 06:26:26;;;;;;;0.80;0.60;;;;;;;18.16;30.18;101098.84;4175179;28;20021;-54
2021/05/07 06:28:26;;;;;;;2.45;1.52;;;;;;;18.20;30.14;101095.56;4171714;28;20407;-55
2021/05/07 06:30:27;;;;;;;1.13;0.75;;;;;;;18.14;30.11;101084.44;4171880;28;20025;-54
2021/05/07 06:32:27;;;;;;;1.00;0.50;;;;;;;18.31;30.17;101094.56;4172683;28;20380;-56
2021/05/07 06:34:28;;;;;;;1.20;1.10;;;;;;;18.34;30.17;101113.41;4176812;28;20045;-56
2021/05/07 06:36:29;;;;;;;1.75;0.73;;;;;;;18.34;29.78;101113.41;4176602;28;20045;-55
2021/05/07 06:38:29;;;;;;;1.38;1.05;;;;;;;18.34;30.05;101113.41;4171252;28;20391;-56
2021/05/07 06:40:30;;;;;;;1.60;0.80;;;;;;;18.37;29.73;101115.66;4174802;28;20048;-56
2021/05/07 06:42:32;;;;;;;1.63;0.90;;;;;;;18.41;29.74;101125.06;4176637;28;20049;-57
2021/05/07 06:44:33;;;;;;;3.85;1.30;;;;;;;18.38;30.08;101122.84;4163008;28;20442;-57
2021/05/07 06:46:34;;;;;;;2.80;1.08;;;;;;;18.43;29.96;101124.81;4174187;28;20037;-57
2021/05/07 06:48:34;;;;;;;1.75;1.08;;;;;;;18.48;29.81;101119.31;4176051;28;20121;-58
2021/05/07 06:50:34;;;;;;;1.98;0.80;;;;;;;18.48;29.74;101125.66;4171960;28;20033;-58
2021/05/07 06:52:35;;;;;;;2.67;0.50;;;;;;;18.52;29.85;101129.59;4172523;28;20033;-55
2021/05/07 06:54:36;;;;;;;1.88;0.90;;;;;;;18.50;29.84;101137.31;4171246;28;20168;-56
2021/05/07 06:56:36;;;;;;;2.53;1.13;;;;;;;18.51;29.80;101139.00;4178651;28;20036;-56
2021/05/07 06:58:38;;;;;;;1.27;0.80;;;;;;;18.51;29.99;101143.72;4175284;28;20025;-56
2021/05/07 07:00:38;;;;;;;1.45;1.35;;;;;;;18.50;29.90;101148.41;4160110;28;20033;-56
2021/05/07 07:02:39;;;;;;;1.65;1.15;;;;;;;18.49;30.03;101146.75;4173281;28;20078;-55
2021/05/07 07:04:39;;;;;;;2.47;0.88;;;;;;;18.45;29.28;101147.56;4180091;28;20048;-55
2021/05/07 07:06:39;;;;;;;2.70;0.63;;;;;;;18.50;29.55;101145.63;4166929;28;20037;-54
2021/05/07 07:08:40;;;;;;;1.58;1.10;;;;;;;18.33;28.99;101161.63;4173789;28;20033;-56
2021/05/07 07:10:40;;;;;;;2.28;1.10;;;;;;;18.38;29.83;101158.03;4173997;28;20079;-55
2021/05/07 07:12:41;;;;;;;1.77;0.80;;;;;;;18.45;29.50;101162.25;4168488;28;20037;-55
2021/05/07 07:14:41;;;;;;;2.47;1.05;;;;;;;18.43;29.68;101158.06;4172157;28;20049;-56
2021/05/07 07:16:41;;;;;;;3.40;1.00;;;;;;;18.37;29.53;101168.31;4174346;28;20173;-58
2021/05/07 07:18:42;;;;;;;1.60;1.00;;;;;;;18.21;29.05;101153.47;4175809;28;20518;-57
2021/05/07 07:20:43;;;;;;;1.77;0.80;;;;;;;18.24;28.98;101174.28;4169439;28;20200;-56
2021/05/07 07:22:43;;;;;;;3.05;1.10;;;;;;;18.27;29.04;101182.06;4176048;28;20034;-55
2021/05/07 07:24:44;;;;;;;2.10;0.90;;;;;;;18.33;29.26;101184.63;4177856;28;20045;-58
2021/05/07 07:26:44;;;;;;;2.28;0.80;;;;;;;18.18;29.53;101152.09;4186894;28;20040;-57
2021/05/07 07:28:47;;;;;;;1.55;0.80;;;;;;;18.34;29.19;101179.94;4173266;28;20033;-56
2021/05/07 07:30:48;;;;;;;2.35;1.08;;;;;;;18.37;29.36;101196.03;4170766;28;20083;-57
2021/05/07 07:32:48;;;;;;;1.20;1.10;;;;;;;18.31;28.96;101194.31;4173343;28;20045;-56
2021/05/07 07:34:48;;;;;;;1.48;1.23;;;;;;;17.98;28.89;101165.75;4177356;28;20530;-56
2021/05/07 07:36:49;;;;;;;1.05;0.95;;;;;;;18.14;28.69;101209.13;4174662;28;20017;-59
2021/05/07 07:38:49;;;;;;;1.08;0.90;;;;;;;18.26;28.94;101205.31;4174837;28;20041;-57
2021/05/07 07:40:51;;;;;;;0.80;0.65;;;;;;;18.42;29.43;101209.91;4174571;28;20770;-58
2021/05/07 07:42:51;;;;;;;1.40;0.63;;;;;;;18.40;29.44;101217.66;4187773;28;20618;-57
2021/05/07 07:44:51;;;;;;;1.55;0.80;;;;;;;18.41;29.03;101218.47;4174329;28;20128;-55
2021/05/07 07:46:52;;;;;;;0.82;0.82;;;;;;;18.42;29.08;101220.97;4183105;28;20036;-56
2021/05/07 07:48:52;;;;;;;2.05;0.98;;;;;;;18.39;28.73;101231.78;4180329;28;20451;-58
2021/05/07 07:50:53;;;;;;;1.05;1.02;;;;;;;18.22;28.77;101229.97;4171542;28;20770;-56
2021/05/07 07:52:53;;;;;;;1.77;0.70;;;;;;;18.35;29.47;101237.00;4186190;28;20029;-56
2021/05/07 07:54:54;;;;;;;1.70;0.73;;;;;;;18.39;29.18;101232.59;4174659;28;20029;-58
2021/05/07 07:56:55;;;;;;;1.02;0.93;;;;;;;18.40;29.25;101245.38;4174822;28;20033;-55
2021/05/07 07:58:56;;;;;;;0.95;0.80;;;;;;;18.38;29.06;101235.66;4176188;28;20060;-56
2021/05/07 08:00:56;;;;;;;2.17;1.15;;;;;;;18.45;29.23;101247.34;4173995;28;20028;-54
2021/05/07 08:02:57;;;;;;;1.80;1.10;;;;;;;18.28;28.96;101245.53;4175823;28;20033;-57
2021/05/07 08:04:58;;;;;;;1.58;1.40;;;;;;;17.85;28.35;101254.84;4172649;28;20501;-55
2021/05/07 08:07:00;;;;;;;1.48;1.20;;;;;;;17.96;28.96;101240.81;4174892;28;20094;-57
2021/05/07 08:09:00;;;;;;;3.92;1.75;;;;;;;18.11;28.52;101242.88;4176321;28;20120;-54
2021/05/07 08:11:01;;;;;;;2.28;1.10;;;;;;;18.28;29.18;101255.78;4173364;28;20376;-57
2021/05/07 08:13:01;;;;;;;1.30;1.13;;;;;;;18.23;28.71;101267.66;4173041;28;20091;-56
2021/05/07 08:15:02;;;;;;;2.03;1.20;;;;;;;18.29;28.96;101272.13;4178859;28;20040;-52
2021/05/07 08:17:03;;;;;;;2.53;1.13;;;;;;;18.32;28.94;101268.88;4174567;28;20152;-59
2021/05/07 08:19:03;;;;;;;3.50;0.77;;;;;;;18.37;28.85;101272.75;4176399;28;20077;-55
2021/05/07 08:21:04;;;;;;;1.42;0.77;;;;;;;18.31;28.88;101271.91;4176637;28;21701;-55
2021/05/07 08:23:05;;;;;;;2.08;0.88;;;;;;;18.29;28.77;101274.91;4177349;28;20029;-55
2021/05/07 08:25:05;;;;;;;0.60;0.60;;;;;;;18.39;28.87;101276.94;4180554;28;20036;-56
2021/05/07 08:27:06;;;;;;;1.08;0.50;;;;;;;18.28;28.87;101281.53;4175239;28;20142;-54
2021/05/07 08:29:06;;;;;;;2.28;0.90;;;;;;;17.95;28.75;101293.69;4174029;28;20036;-54
2021/05/07 08:31:06;;;;;;;7.75;1.70;;;;;;;18.13;28.95;101295.25;4173948;28;20046;-54
2021/05/07 08:33:09;;;;;;;3.70;1.73;;;;;;;18.40;28.73;101294.41;4174913;28;20561;-53
2021/05/07 08:35:11;;;;;;;5.88;1.05;;;;;;;18.47;29.01;101286.72;4173853;28;20044;-53
2021/05/07 08:37:12;;;;;;;3.78;1.13;;;;;;;18.62;29.10;101297.91;4175615;28;20039;-49
2021/05/07 08:39:13;;;;;;;5.68;1.52;;;;;;;18.62;28.96;101280.44;4173787;28;20043;-47
2021/05/07 08:41:13;;;;;;;5.10;1.25;;;;;;;18.79;29.10;101303.28;4173631;28;20057;-49
2021/05/07 08:43:14;;;;;;;5.88;1.35;;;;;;;18.83;29.25;101306.34;4171207;28;20045;-59
2021/05/07 08:45:15;;;;;;;4.05;1.30;;;;;;;18.88;29.44;101310.00;4174346;28;20052;-57
2021/05/07 08:47:20;;;;;;;3.60;1.00;;;;;;;18.93;29.55;101305.59;4178125;28;20055;-52
2021/05/07 08:49:23;;;;;;;1.50;0.80;;;;;;;18.93;29.52;101303.66;4171857;28;20040;-53
2021/05/07 08:51:23;;;;;;;1.00;0.70;;;;;;;18.97;29.49;101315.91;4173249;28;20025;-54
2021/05/07 08:53:25;;;;;;;1.23;0.80;;;;;;;19.00;29.30;101320.06;4171075;28;20049;-51
2021/05/07 08:55:26;;;;;;;4.15;1.23;;;;;;;19.06;29.54;101324.53;4171225;28;20035;-52
2021/05/07 08:57:26;;;;;;;4.45;1.13;;;;;;;19.11;29.71;101320.97;4171456;28;20511;-54
2021/05/07 08:59:27;;;;;;;1.25;0.65;;;;;;;19.15;29.47;101331.28;4172311;28;20029;-57
2021/05/07 09:01:48;;;;;;;2.75;0.55;;;;;;;19.16;29.75;101329.34;4172025;28;20040;-50
2021/05/07 09:03:48;;;;;;;2.97;0.73;;;;;;;19.24;29.72;101337.97;4176286;28;20152;-50
2021/05/07 09:05:49;;;;;;;2.72;0.90;;;;;;;19.24;29.79;101332.44;4165651;28;20496;-49
2021/05/07 09:07:55;;;;;;;6.05;0.65;;;;;;;19.22;29.44;101333.81;4173803;28;20052;-52
2021/05/07 09:09:58;;;;;;;2.00;0.65;;;;;;;19.26;29.72;101334.13;4175091;28;20033;-48
2021/05/07 09:12:02;;;;;;;2.22;1.00;;;;;;;19.29;29.94;101350.22;4170895;28;20070;-58
2021/05/07 09:14:03;;;;;;;3.92;0.55;;;;;;;19.34;29.89;101356.66;4172950;28;20059;-53
2021/05/07 09:16:06;;;;;;;3.83;0.80;;;;;;;19.46;29.74;101361.13;4173562;28;20831;-50
2021/05/07 09:18:06;;;;;;;1.13;0.52;;;;;;;19.51;29.82;101361.16;4172672;28;20470;-51
2021/05/07 09:20:10;;;;;;;5.47;0.73;;;;;;;19.51;29.69;101352.81;4175379;28;20037;-56
2021/05/07 09:22:21;;;;;;;2.80;0.60;;;;;;;19.51;29.85;101359.22;4169269;28;20043;-49